createdAt,value
2023-02-05T00:00:21.662Z,-3.10
2023-02-05T00:02:48.363Z,-3.20
2023-02-05T00:05:15.033Z,-3.10
2023-02-05T00:07:41.763Z,-3.10
2023-02-05T00:10:08.752Z,-3.10
2023-02-05T00:12:35.494Z,-3.10
2023-02-05T00:15:02.167Z,-3.10
2023-02-05T00:17:28.805Z,-3.20
2023-02-05T00:19:55.491Z,-3.20
2023-02-05T00:22:22.154Z,-3.20
2023-02-05T00:24:48.823Z,-3.30
2023-02-05T00:27:15.587Z,-3.30
2023-02-05T00:29:43.023Z,-3.30
2023-02-05T00:32:09.855Z,-3.40
2023-02-05T00:34:36.535Z,-3.40
2023-02-05T00:37:03.241Z,-3.60
2023-02-05T00:39:29.914Z,-3.40
2023-02-05T00:41:56.547Z,-3.60
2023-02-05T00:44:23.211Z,-3.60
2023-02-05T00:46:49.870Z,-3.50
2023-02-05T00:49:16.549Z,-3.50
2023-02-05T00:51:43.295Z,-3.50
2023-02-05T00:54:10.006Z,-3.50
2023-02-05T00:56:36.683Z,-3.50
2023-02-05T00:59:03.572Z,-3.50
2023-02-05T01:01:30.253Z,-3.50
2023-02-05T01:03:56.912Z,-3.50
2023-02-05T01:06:23.714Z,-3.50
2023-02-05T01:08:50.376Z,-3.50
2023-02-05T01:11:17.109Z,-3.50
2023-02-05T01:13:43.986Z,-3.70
2023-02-05T01:16:11.646Z,-3.70
2023-02-05T01:18:38.368Z,-3.40
2023-02-05T01:21:05.261Z,-3.70
2023-02-05T01:23:31.980Z,-3.70
2023-02-05T01:25:58.650Z,-3.80
2023-02-05T01:28:25.355Z,-3.80
2023-02-05T01:30:52.155Z,-3.90
2023-02-05T01:33:19.025Z,-3.90
2023-02-05T01:35:45.984Z,-4.20
2023-02-05T01:38:12.940Z,-3.80
2023-02-05T01:40:40.351Z,-4.10
2023-02-05T01:43:12.825Z,-3.90
2023-02-05T01:46:01.002Z,-3.70
2023-02-05T01:48:32.572Z,-3.70
2023-02-05T01:51:06.267Z,-3.50
2023-02-05T01:53:36.106Z,-4.10
2023-02-05T01:56:19.205Z,-3.40
2023-02-05T01:58:54.735Z,-3.70
2023-02-05T02:01:21.647Z,-3.90
2023-02-05T02:03:49.913Z,-3.90
2023-02-05T02:06:16.581Z,-3.90
2023-02-05T02:08:43.262Z,-3.40
2023-02-05T02:11:12.168Z,-3.90
2023-02-05T02:13:40.015Z,-4.00
2023-02-05T02:16:08.406Z,-3.20
2023-02-05T02:18:37.364Z,-4.00
2023-02-05T02:21:15.948Z,-4.00
2023-02-05T02:24:00.907Z,-3.90
2023-02-05T02:26:56.494Z,-3.90
2023-02-05T02:29:30.713Z,-4.00
2023-02-05T02:32:01.469Z,-3.80
2023-02-05T02:34:38.968Z,-4.00
2023-02-05T02:37:12.538Z,-3.80
2023-02-05T02:40:00.684Z,-4.10
2023-02-05T02:42:39.803Z,-4.10
2023-02-05T02:45:08.966Z,-4.10
2023-02-05T02:47:46.800Z,-4.10
2023-02-05T02:50:21.774Z,-4.10
2023-02-05T02:52:51.406Z,-4.10
2023-02-05T02:55:20.224Z,-4.20
2023-02-05T02:57:49.028Z,-4.10
2023-02-05T03:00:27.411Z,-4.20
2023-02-05T03:03:03.222Z,-4.10
2023-02-05T03:05:31.181Z,-4.00
2023-02-05T03:08:04.114Z,-4.10
2023-02-05T03:10:42.681Z,-4.20
2023-02-05T03:13:11.091Z,-4.20
2023-02-05T03:15:41.568Z,-4.40
2023-02-05T03:18:08.520Z,-4.40
2023-02-05T03:20:41.420Z,-4.40
2023-02-05T03:23:08.237Z,-4.40
2023-02-05T03:25:35.312Z,-4.40
2023-02-05T03:28:02.691Z,-4.40
2023-02-05T03:30:40.785Z,-4.40
2023-02-05T03:33:13.502Z,-4.40
2023-02-05T03:35:47.258Z,-4.50
2023-02-05T03:38:34.809Z,-4.40
2023-02-05T03:41:20.635Z,-4.40
2023-02-05T03:44:07.810Z,-4.40
2023-02-05T03:46:45.231Z,-4.40
2023-02-05T03:49:21.397Z,-4.40
2023-02-05T03:51:53.988Z,-4.40
2023-02-05T03:54:37.018Z,-4.40
2023-02-05T03:57:20.586Z,-4.60
2023-02-05T03:59:49.080Z,-4.50
2023-02-05T04:02:17.127Z,-4.50
2023-02-05T04:04:43.925Z,-4.50
2023-02-05T04:09:38.154Z,-4.70
2023-02-05T04:12:05.163Z,-4.60
2023-02-05T04:14:31.928Z,-4.60
2023-02-05T04:16:58.695Z,-4.60
2023-02-05T04:19:25.502Z,-4.60
2023-02-05T04:21:52.203Z,-4.70
2023-02-05T04:24:19.007Z,-4.70
2023-02-05T04:26:45.766Z,-4.70
2023-02-05T04:29:12.494Z,-4.60
2023-02-05T04:34:06.631Z,-4.60
2023-02-05T04:36:33.461Z,-4.40
2023-02-05T04:39:00.232Z,-4.70
2023-02-05T04:41:26.966Z,-4.80
2023-02-05T04:43:53.766Z,-4.90
2023-02-05T04:46:20.630Z,-4.80
2023-02-05T04:48:47.410Z,-4.80
2023-02-05T04:51:14.838Z,-4.70
2023-02-05T04:53:41.788Z,-4.80
2023-02-05T04:56:12.736Z,-4.80
2023-02-05T04:58:40.041Z,-4.70
2023-02-05T05:01:15.175Z,-4.80
2023-02-05T05:03:42.903Z,-4.70
2023-02-05T05:06:10.122Z,-4.80
2023-02-05T05:11:16.853Z,-4.80
2023-02-05T05:13:44.154Z,-4.80
2023-02-05T05:16:12.076Z,-4.50
2023-02-05T05:18:39.882Z,-4.80
2023-02-05T05:21:07.484Z,-4.80
2023-02-05T05:23:35.164Z,-4.80
2023-02-05T05:26:06.042Z,-4.90
2023-02-05T05:28:34.749Z,-4.90
2023-02-05T05:31:09.559Z,-4.80
2023-02-05T05:33:37.077Z,-4.80
2023-02-05T05:36:04.662Z,-4.80
2023-02-05T05:38:31.687Z,-4.80
2023-02-05T05:41:17.050Z,-4.90
2023-02-05T05:44:01.736Z,-4.20
2023-02-05T05:46:28.522Z,-4.80
2023-02-05T05:49:01.468Z,-4.80
2023-02-05T05:51:30.501Z,-4.70
2023-02-05T05:53:57.666Z,-4.80
2023-02-05T05:56:24.847Z,-4.80
2023-02-05T05:58:51.594Z,-4.70
2023-02-05T06:01:20.553Z,-4.70
2023-02-05T06:03:47.307Z,-4.60
2023-02-05T06:06:14.074Z,-4.60
2023-02-05T06:08:40.830Z,-4.50
2023-02-05T06:11:07.614Z,-4.60
2023-02-05T06:13:34.965Z,-4.70
2023-02-05T06:16:02.425Z,-4.50
2023-02-05T06:18:29.823Z,-4.40
2023-02-05T06:20:56.591Z,-4.30
2023-02-05T06:23:23.370Z,-4.30
2023-02-05T06:25:50.172Z,-4.40
2023-02-05T06:28:16.979Z,-4.40
2023-02-05T06:30:43.936Z,-4.40
2023-02-05T06:33:12.794Z,-4.40
2023-02-05T06:35:40.503Z,-4.20
2023-02-05T06:38:07.476Z,-4.10
2023-02-05T06:40:34.324Z,-4.10
2023-02-05T06:43:01.104Z,-4.00
2023-02-05T06:45:27.909Z,-4.00
2023-02-05T06:47:56.090Z,-3.90
2023-02-05T06:50:23.957Z,-3.90
2023-02-05T06:52:51.313Z,-3.90
2023-02-05T06:55:18.696Z,-3.80
2023-02-05T06:57:45.453Z,-3.70
2023-02-05T07:00:12.969Z,-3.70
2023-02-05T07:02:39.859Z,-3.60
2023-02-05T07:05:07.154Z,-3.50
2023-02-05T07:07:34.084Z,-3.40
2023-02-05T07:10:01.242Z,-3.40
2023-02-05T07:12:28.343Z,-3.30
2023-02-05T07:14:55.186Z,-3.30
2023-02-05T07:17:22.079Z,-3.30
2023-02-05T07:19:48.928Z,-3.20
2023-02-05T07:22:16.492Z,-3.20
2023-02-05T07:24:43.233Z,-3.10
2023-02-05T07:27:10.002Z,-2.90
2023-02-05T07:29:36.680Z,-3.00
2023-02-05T07:32:03.591Z,-3.30
2023-02-05T07:34:30.400Z,-2.20
2023-02-05T07:36:57.140Z,-2.70
2023-02-05T07:39:23.843Z,-2.90
2023-02-05T07:41:51.329Z,-3.20
2023-02-05T07:44:18.139Z,-3.20
2023-02-05T07:46:45.016Z,-2.70
2023-02-05T07:49:11.789Z,-2.90
2023-02-05T07:51:38.718Z,-2.00
2023-02-05T07:54:09.731Z,-1.90
2023-02-05T07:56:36.595Z,-2.20
2023-02-05T07:59:03.895Z,-2.30
2023-02-05T08:01:30.699Z,-2.50
2023-02-05T08:03:57.491Z,-2.30
2023-02-05T08:08:51.523Z,-2.20
2023-02-05T08:11:19.241Z,-2.50
2023-02-05T08:16:15.916Z,-2.00
2023-02-05T08:18:46.769Z,-2.00
2023-02-05T08:21:13.548Z,-1.70
2023-02-05T08:23:40.270Z,-2.20
2023-02-05T08:26:06.989Z,-2.00
2023-02-05T08:28:33.793Z,-1.90
2023-02-05T08:31:00.653Z,-2.10
2023-02-05T08:33:27.409Z,-1.90
2023-02-05T08:35:54.181Z,-1.30
2023-02-05T08:38:20.928Z,-2.10
2023-02-05T08:40:47.756Z,-2.10
2023-02-05T08:43:14.611Z,-2.20
2023-02-05T08:45:45.490Z,-1.60
2023-02-05T08:48:12.482Z,-2.10
2023-02-05T08:50:39.277Z,-2.60
2023-02-05T08:53:07.244Z,-2.20
2023-02-05T08:55:34.290Z,-2.10
2023-02-05T08:58:01.340Z,-2.30
2023-02-05T09:00:28.363Z,-2.00
2023-02-05T09:02:55.222Z,-1.50
2023-02-05T09:05:22.045Z,-1.90
2023-02-05T09:07:48.862Z,-1.90
2023-02-05T09:12:42.975Z,-1.30
2023-02-05T09:15:10.291Z,0.00
2023-02-05T09:17:37.081Z,-1.20
2023-02-05T09:20:04.507Z,-1.50
2023-02-05T09:22:31.480Z,0.40
2023-02-05T09:29:55.912Z,-1.20
2023-02-05T09:32:23.196Z,-1.50
2023-02-05T09:34:50.073Z,-0.70
2023-02-05T09:37:17.505Z,-1.40
2023-02-05T09:40:18.853Z,-1.10
2023-02-05T09:42:44.494Z,-1.20
2023-02-05T09:48:17.684Z,-0.80
2023-02-05T09:50:47.241Z,-0.80
2023-02-05T09:53:19.762Z,-0.40
2023-02-05T09:55:50.285Z,-0.70
2023-02-05T09:58:36.051Z,-0.20
2023-02-05T10:04:37.507Z,0.80
2023-02-05T10:07:51.848Z,-0.50
2023-02-05T10:26:51.631Z,-0.10
2023-02-05T10:29:24.418Z,-0.20
2023-02-05T10:32:44.137Z,1.10
2023-02-05T10:35:55.029Z,-0.30
2023-02-05T10:38:42.004Z,-0.10
2023-02-05T10:42:08.974Z,-0.10
2023-02-05T10:52:01.443Z,-0.20
2023-02-05T11:55:07.401Z,0.80
2023-02-05T12:16:58.261Z,-0.40
2023-02-05T12:19:33.834Z,0.80
2023-02-05T12:22:21.809Z,0.80
2023-02-05T12:25:10.780Z,0.70
2023-02-05T12:27:53.553Z,0.70
2023-02-05T12:30:58.086Z,0.70
2023-02-05T12:33:36.238Z,0.70
2023-02-05T12:36:22.399Z,0.60
2023-02-05T12:38:59.077Z,0.60
2023-02-05T12:41:47.349Z,0.60
2023-02-05T12:45:02.302Z,0.60
2023-02-05T12:47:47.125Z,0.50
2023-02-05T12:50:38.220Z,0.60
2023-02-05T12:53:20.405Z,0.50
2023-02-05T12:56:14.679Z,0.50
2023-02-05T12:58:49.218Z,0.40
2023-02-05T13:01:23.872Z,0.40
2023-02-05T13:03:57.053Z,0.40
2023-02-05T13:06:28.169Z,0.40
2023-02-05T13:09:03.839Z,0.40
2023-02-05T13:11:56.923Z,0.40
2023-02-05T13:14:34.190Z,0.50
2023-02-05T13:17:15.798Z,0.40
2023-02-05T13:19:46.984Z,0.40
2023-02-05T13:22:40.158Z,0.40
2023-02-05T13:25:54.338Z,0.40
2023-02-05T13:28:42.180Z,0.40
2023-02-05T13:31:14.857Z,0.50
2023-02-05T13:33:43.326Z,0.40
2023-02-05T13:36:19.966Z,0.40
2023-02-05T13:39:26.470Z,0.40
2023-02-05T13:42:17.057Z,0.40
2023-02-05T13:45:16.182Z,0.40
2023-02-05T13:48:14.030Z,0.40
2023-02-05T13:51:08.479Z,0.40
2023-02-05T13:54:11.820Z,0.40
2023-02-05T13:56:52.071Z,0.50
2023-02-05T13:59:51.456Z,0.50
2023-02-05T14:02:27.321Z,0.50
2023-02-05T14:04:54.797Z,0.50
2023-02-05T14:07:26.200Z,0.50
2023-02-05T14:10:02.519Z,0.50
2023-02-05T14:27:10.576Z,0.50
2023-02-05T14:34:21.754Z,2.10
2023-02-05T14:36:50.389Z,1.90
2023-02-05T14:47:03.498Z,2.00
2023-02-05T14:49:42.177Z,1.90
2023-02-05T14:52:31.505Z,-0.10
2023-02-05T14:55:05.531Z,1.10
2023-02-05T15:01:54.368Z,1.40
2023-02-05T15:05:24.196Z,0.80
2023-02-05T15:30:07.016Z,1.90
2023-02-05T15:33:19.833Z,1.50
2023-02-05T15:35:56.192Z,1.00
2023-02-05T15:42:05.783Z,0.80
2023-02-05T15:44:48.222Z,0.30
2023-02-05T15:47:29.989Z,0.70
2023-02-05T15:50:04.716Z,0.30
2023-02-05T15:52:35.068Z,1.00
2023-02-05T15:55:16.562Z,1.00
2023-02-05T16:19:54.526Z,0.20
2023-02-05T16:22:31.663Z,-0.20
2023-02-05T16:25:03.291Z,0.10
2023-02-05T16:27:37.332Z,0.10
2023-02-05T16:30:13.494Z,0.90
2023-02-05T16:32:53.304Z,0.10
2023-02-05T16:35:27.131Z,0.00
2023-02-05T16:37:54.294Z,0.00
2023-02-05T16:40:32.782Z,-0.10
2023-02-05T16:43:00.678Z,-0.30
2023-02-05T16:45:29.152Z,-0.20
2023-02-05T16:48:24.753Z,-0.40
2023-02-05T16:50:52.508Z,0.10
2023-02-05T16:53:26.900Z,0.00
2023-02-05T16:56:33.361Z,-0.20
2023-02-05T16:59:02.973Z,0.00
2023-02-05T17:04:35.773Z,-0.40
2023-02-05T17:07:32.720Z,0.00
2023-02-05T17:10:14.430Z,-0.30
2023-02-05T17:13:26.906Z,0.10
2023-02-05T17:15:55.755Z,1.20
2023-02-05T17:18:31.145Z,0.10
2023-02-05T17:21:21.921Z,0.10
2023-02-05T17:23:50.486Z,0.10
2023-02-05T17:26:18.169Z,-0.10
2023-02-05T17:28:50.419Z,-0.20
2023-02-05T17:31:18.025Z,0.60
2023-02-05T17:34:01.007Z,-0.60
2023-02-05T17:36:27.958Z,-1.30
2023-02-05T17:38:55.375Z,-0.60
2023-02-05T17:41:44.214Z,-0.50
2023-02-05T17:44:28.305Z,-0.20
2023-02-05T17:47:00.890Z,0.40
2023-02-05T17:49:27.934Z,-0.40
2023-02-05T17:51:54.726Z,-0.30
2023-02-05T17:54:25.455Z,-0.40
2023-02-05T17:56:56.845Z,0.20
2023-02-05T17:59:26.349Z,-0.30
2023-02-05T18:01:53.866Z,1.10
2023-02-05T18:04:21.015Z,1.90
2023-02-05T18:06:51.755Z,1.10
2023-02-05T18:09:20.009Z,-0.30
2023-02-05T18:11:46.925Z,-0.20
2023-02-05T18:14:13.877Z,-0.30
2023-02-05T18:16:40.840Z,-0.20
2023-02-05T18:19:07.919Z,0.00
2023-02-05T18:21:35.896Z,-0.10
2023-02-05T18:24:03.402Z,-0.40
2023-02-05T18:26:30.562Z,-0.20
2023-02-05T18:29:03.656Z,-0.10
2023-02-05T18:31:31.494Z,0.20
2023-02-05T18:33:58.996Z,0.20
2023-02-05T18:36:25.724Z,-0.20
2023-02-05T18:38:56.370Z,-0.70
2023-02-05T18:41:28.751Z,-0.30
2023-02-05T18:43:56.443Z,0.00
2023-02-05T18:46:26.171Z,-0.50
2023-02-05T18:48:54.520Z,-0.20
2023-02-05T18:51:23.682Z,0.00
2023-02-05T18:53:54.136Z,0.00
2023-02-05T18:56:23.532Z,0.10
2023-02-05T18:59:02.308Z,-0.20
2023-02-05T19:01:36.870Z,-0.30
2023-02-05T19:04:17.885Z,0.10
2023-02-05T19:06:52.644Z,1.60
2023-02-05T19:09:22.347Z,0.20
2023-02-05T19:11:55.926Z,0.10
2023-02-05T19:14:25.230Z,0.00
2023-02-05T19:16:55.673Z,0.10
2023-02-05T19:19:26.186Z,0.10
2023-02-05T19:22:12.007Z,-0.40
2023-02-05T19:24:40.378Z,0.20
2023-02-05T19:27:29.792Z,0.10
2023-02-05T19:29:56.502Z,0.30
2023-02-05T19:32:23.922Z,0.10
2023-02-05T19:34:50.784Z,0.10
2023-02-05T19:37:24.184Z,0.00
2023-02-05T19:39:52.106Z,0.00
2023-02-05T19:42:18.826Z,0.20
2023-02-05T19:44:45.534Z,0.00
2023-02-05T19:47:18.652Z,-0.30
2023-02-05T19:49:46.079Z,-0.20
2023-02-05T19:52:28.605Z,0.20
2023-02-05T19:55:00.746Z,0.10
2023-02-05T19:57:29.298Z,0.00
2023-02-05T19:59:59.008Z,0.00
2023-02-05T20:02:27.670Z,-0.10
2023-02-05T20:04:55.625Z,-0.40
2023-02-05T20:07:29.693Z,0.00
2023-02-05T20:09:57.882Z,-0.10
2023-02-05T20:12:25.165Z,0.10
2023-02-05T20:15:05.347Z,-0.40
2023-02-05T20:17:35.124Z,-0.10
2023-02-05T20:20:12.716Z,0.00
2023-02-05T20:22:50.294Z,-0.30
2023-02-05T20:25:17.061Z,-0.50
2023-02-05T20:27:45.008Z,-0.80
2023-02-05T20:30:40.520Z,0.00
2023-02-05T20:33:07.253Z,0.00
2023-02-05T20:35:37.053Z,-0.10
2023-02-05T20:38:06.497Z,-0.50
2023-02-05T20:40:34.546Z,-0.60
2023-02-05T20:43:05.410Z,-0.10
2023-02-05T20:45:35.180Z,-0.10
2023-02-05T20:48:02.130Z,0.00
2023-02-05T20:50:33.736Z,-0.30
2023-02-05T20:53:02.358Z,-0.20
2023-02-05T20:55:30.040Z,-0.60
2023-02-05T20:57:56.854Z,-0.20
2023-02-05T21:00:36.385Z,-0.20
2023-02-05T21:03:12.638Z,-0.30
2023-02-05T21:05:39.701Z,-0.30
2023-02-05T21:08:13.809Z,-0.60
2023-02-05T21:10:49.340Z,-0.50
2023-02-05T21:13:17.572Z,-0.50
2023-02-05T21:15:55.999Z,-0.50
2023-02-05T21:18:23.929Z,-0.90
2023-02-05T21:20:51.189Z,-0.80
2023-02-05T21:23:19.132Z,-0.80
2023-02-05T21:25:46.503Z,-0.80
2023-02-05T21:28:13.753Z,-0.80
2023-02-05T21:30:42.957Z,-0.90
2023-02-05T21:33:09.688Z,-1.00
2023-02-05T21:35:39.492Z,-0.90
2023-02-05T21:38:11.165Z,-0.80
2023-02-05T21:40:38.877Z,-0.80
2023-02-05T21:43:06.655Z,-0.80
2023-02-05T21:45:37.066Z,-0.80
2023-02-05T21:48:05.226Z,0.20
2023-02-05T21:50:31.898Z,-0.80
2023-02-05T21:52:58.630Z,-0.80
2023-02-05T21:55:26.829Z,-0.80
2023-02-05T21:57:53.519Z,-0.70
2023-02-05T22:00:20.439Z,-0.80
2023-02-05T22:02:47.317Z,-0.70
2023-02-05T22:05:14.058Z,-0.70
2023-02-05T22:07:40.793Z,-0.60
2023-02-05T22:10:07.772Z,-0.60
2023-02-05T22:12:34.527Z,-0.60
2023-02-05T22:15:01.335Z,-0.60
2023-02-05T22:17:28.043Z,-0.30
2023-02-05T22:19:54.824Z,-0.60
2023-02-05T22:22:21.610Z,-0.60
2023-02-05T22:24:48.835Z,-0.60
2023-02-05T22:27:15.798Z,-0.70
2023-02-05T22:29:42.547Z,-0.60
2023-02-05T22:32:11.050Z,-0.80
2023-02-05T22:34:37.752Z,-0.80
2023-02-05T22:37:04.466Z,-0.80
2023-02-05T22:39:31.418Z,-0.90
2023-02-05T22:41:58.243Z,-0.90
2023-02-05T22:44:24.974Z,-0.90
2023-02-05T22:46:51.687Z,-1.00
2023-02-05T22:49:21.305Z,-1.00
2023-02-05T22:51:52.095Z,-1.00
2023-02-05T22:54:19.149Z,-1.00
2023-02-05T22:56:52.968Z,-1.00
2023-02-05T22:59:19.743Z,-1.10
2023-02-05T23:01:46.470Z,-2.00
2023-02-05T23:04:14.582Z,-1.20
2023-02-05T23:06:45.212Z,-1.20
2023-02-05T23:09:18.137Z,-1.20
2023-02-05T23:11:50.307Z,-1.20
2023-02-05T23:14:20.180Z,-1.30
2023-02-05T23:16:47.950Z,-1.20
2023-02-05T23:19:18.709Z,-1.20
2023-02-05T23:21:46.456Z,-1.20
2023-02-05T23:24:19.068Z,-1.20
2023-02-05T23:26:48.381Z,-1.30
2023-02-05T23:29:16.550Z,-1.30
2023-02-05T23:31:45.107Z,-1.30
2023-02-05T23:34:12.286Z,-1.30
2023-02-05T23:36:39.248Z,-1.30
2023-02-05T23:39:06.177Z,-1.40
2023-02-05T23:41:40.060Z,-1.40
2023-02-05T23:44:16.321Z,-1.40
2023-02-05T23:46:48.499Z,-1.40
2023-02-05T23:49:21.656Z,-0.70
2023-02-05T23:51:55.494Z,-1.50
2023-02-05T23:54:23.767Z,-1.70
2023-02-05T23:56:52.331Z,-1.60
2023-02-05T23:59:19.161Z,-1.70
